Nearby METAR Reports

 

KUCP - New Castle Muni, Pennsylvania, USA
Distance from station: ENE 8mi, 13km
Updated: Tue, 15-Oct-2019 12:56am EDT
Clear
Clear
 Wind from calm
Wind: Calm
Temperature: 37°F , 3°C
Dew Point: 36°F , 2°C
Humidity: 93%
Barometer: 30.14 inHg , 1020.7 hPa
Clouds: Clear
Visibility: 10 miles , 16 km
2019/10/15 04:56 KUCP 150456Z AUTO 00000KT 10SM CLR 03/02 A3014 RMK AO2 SLP227 T00280022 401560022 PNO $
KBVI - Beaver Falls Arp, Pennsylvania, USA
Distance from station: SSE 16mi, 26km
Updated: Tue, 15-Oct-2019 12:56am EDT
Clear
Clear
 Wind from calm
Wind: Calm
Temperature: 45°F , 7°C
Dew Point: 37°F , 3°C
Humidity: 76%
Barometer: 30.13 inHg , 1020.3 hPa
Clouds: Clear
Visibility: 10 miles , 16 km
2019/10/15 04:56 KBVI 150456Z AUTO 00000KT 10SM CLR 07/03 A3013 RMK AO2 T00650030
 
KYNG - Youngstown, Ohio, USA
Distance from station: NNW 20mi, 33km
Updated: Tue, 15-Oct-2019 12:51am EDT
Few Clouds
Few Clouds
 Wind from SSE
Wind: SSE 3 mph , 6 km/h
Temperature: 36°F , 2°C
Dew Point: 34°F , 1°C
Humidity: 93%
Barometer: 30.12 inHg , 1020 hPa
Clouds: Few Clouds
Visibility: 10 miles , 16 km
Cloud details: Few Clouds 25000 ft
2019/10/15 04:51 KYNG 150451Z 15003KT 10SM FEW250 02/01 A3012 RMK AO2 SLP207 T00170006 401500017 $
KBTP - Butler Co., Pennsylvania, USA
Distance from station: ESE 34mi, 55km
Updated: Tue, 15-Oct-2019 12:56am EDT
Clear
Clear
 Wind from calm
Wind: Calm
Temperature: 39°F , 4°C
Dew Point: 37°F , 3°C
Humidity: 93%
Barometer: 30.14 inHg , 1020.7 hPa
Clouds: Clear
Visibility: 10 miles , 16 km
2019/10/15 04:56 KBTP 150456Z AUTO 00000KT 10SM CLR 04/03 A3014 RMK AO2 SLP214 T00390028 401560039
 
KPIT - Pittsburgh, Pennsylvania, USA
Distance from station: SSE 36mi, 57km
Updated: Tue, 15-Oct-2019 12:51am EDT
Few Clouds
Few Clouds
 Wind from calm
Wind: Calm
Temperature: 46°F , 8°C
Dew Point: 37°F , 3°C
Humidity: 71%
Barometer: 30.12 inHg , 1020 hPa
Clouds: Few Clouds
Visibility: 10 miles , 16 km
Cloud details: Few Clouds 25000 ft
2019/10/15 04:51 KPIT 150451Z 00000KT 10SM FEW250 08/03 A3012 RMK AO2 SLP209 T00780028 401670078
KPOV - Ravena/Portage, Ohio, USA
Distance from station: WNW 40mi, 65km
Updated: Tue, 15-Oct-2019 12:55am EDT
Clear
Clear
 Wind from calm
Wind: Calm
Temperature: 36°F , 2°C
Dew Point: 34°F , 1°C
Humidity: 93%
Barometer: 30.12 inHg , 1020 hPa
Clouds: Clear
Visibility: 10 miles , 16 km
2019/10/15 04:55 KPOV 150455Z AUTO 00000KT 10SM CLR 02/01 A3012 RMK AO2 T00150007 PWINO
 
KFKL - Franklin, Pennsylvania, USA
Distance from station: NE 45mi, 72km
Updated: Tue, 15-Oct-2019 12:56am EDT
Clear
Clear
 Wind from calm
Wind: Calm
Temperature: 37°F , 3°C
Dew Point: 36°F , 2°C
Humidity: 93%
Barometer: 30.13 inHg , 1020.3 hPa
Clouds: Clear
Visibility: 10 miles , 16 km
2019/10/15 04:56 KFKL 150456Z AUTO 00000KT 10SM CLR 03/02 A3013 RMK AO2 SLP210 T00280022 401390022
KCAK - Akron, Ohio, USA
Distance from station: W 47mi, 76km
Updated: Tue, 15-Oct-2019 12:51am EDT
Few Clouds
Few Clouds
 Wind from SE
Wind: SE 3 mph , 6 km/h
Temperature: 43°F , 6°C
Dew Point: 36°F , 2°C
Humidity: 76%
Barometer: 30.13 inHg , 1020.3 hPa
Clouds: Few Clouds
Visibility: 10 miles , 16 km
Cloud details: Few Clouds 25000 ft
2019/10/15 04:51 KCAK 150451Z 13003KT 10SM FEW250 06/02 A3013 RMK AO2 SLP205 T00560022 401610056 $
 
KAKR - Akron (fulton), Ohio, USA
Distance from station: W 48mi, 77km
Updated: Tue, 15-Oct-2019 12:54am EDT
Clear
Clear
 Wind from calm
Wind: Calm
Temperature: 37°F , 3°C
Dew Point: 36°F , 2°C
Humidity: 93%
Barometer: 30.13 inHg , 1020.3 hPa
Clouds: Clear
Visibility: 10 miles , 16 km
2019/10/15 04:54 KAKR 150454Z AUTO 00000KT 10SM CLR 03/02 A3013 RMK AO2 SLP204 T00330017 401670033 $
KGKJ - Meadville, Pennsylvania, USA
Distance from station: NNE 49mi, 79km
Updated: Tue, 15-Oct-2019 12:53am EDT
Clear
Clear
 Wind from calm
Wind: Calm
Temperature: 37°F , 3°C
Dew Point: 34°F , 1°C
Humidity: 87%
Barometer: 30.12 inHg , 1020 hPa
Clouds: Clear
Visibility: 10 miles , 16 km
2019/10/15 04:53 KGKJ 150453Z AUTO 00000KT 10SM CLR 03/01 A3012 RMK AO2 SLP205 T00330011 401220028 TSNO